• Join FlightAware (Why Join?)
  • Login
  • US Flag 
 
07:09PM EST


 

Airport Tracker/Info


-or-


 

Live Flight TrackerFlight Track Log ✈ SKW5301 ✈ 16-Aug-2013 ✈ KMKE - KDEN

Flight Track Log - Related Links

Times and Time Zones

All times are in EDT time to prevent confusion due to time zone crossing. See the SKW5301 flight status page for this flight to view local times or setup timezone preferences in your user account.

Time Position Orientation Groundspeed Altitude Reporting Facility
EDT Latitude Longitude Course Direction KTS MPH feet Rate Location/Type
10:01AM 42.9500 -87.8833 255° West 160 184 1,200  Level KMKE
10:02AM 42.9539 -87.8567 79° East 157 181 2,200 1,740 Climbing Chicago Center
10:03AM 42.9928 -87.8794 337° Northwest 207 238 4,000 2,100 Climbing Chicago Center
10:04AM 42.9817 -87.9969 263° West 258 297 6,600 2,460 Climbing Chicago Center
10:05AM 42.9333 -88.5159 270° West  Level FlightAware Approximate
10:05AM 42.9717 -88.1033 263° West 276 318 9,200  Level Chicago Center
10:06AM 42.9001 -88.6665 251° West  Level FlightAware Approximate
10:06AM 42.9611 -88.2161 263° West 293 337 11,500  Level Chicago Center
10:07AM 42.8727 -88.8200 255° West  Level FlightAware Approximate
10:07AM 42.9503 -88.3322 263° West 302 348 13,400  Level Chicago Center
10:08AM 42.9494 -88.4628 270° West 334 384 14,800 1,500 Climbing Chicago Center
10:09AM 42.9553 -88.5950 273° West 343 395 16,500 1,500 Climbing Chicago Center
10:10AM 42.9633 -88.7536 274° West 353 406 18,000 1,320 Climbing Chicago Center
10:11AM 42.9731 -88.8908 276° West 358 412 19,300 1,200 Climbing Chicago Center
10:12AM 42.9825 -89.0294 275° West 363 418 20,600 1,200 Climbing Chicago Center
10:13AM 42.9928 -89.1697 276° West 368 423 21,800 1,020 Climbing Chicago Center
10:14AM 43.0047 -89.3117 277° West 372 428 22,800 900 Climbing Chicago Center
10:15AM 43.0158 -89.4569 276° West 381 438 23,700 900 Climbing Chicago Center
10:16AM 43.0300 -89.6264 277° West 383 441 24,700 960 Climbing Chicago Center
10:17AM 43.0064 -89.7733 258° West 391 450 25,700 780 Climbing Chicago Center
10:18AM 42.9847 -89.9206 259° West 394 453 26,400 600 Climbing Chicago Center
10:19AM 42.9636 -90.0697 259° West 401 461 27,000 540 Climbing Chicago Center
10:21AM 42.9406 -90.2178 258° West 404 465 27,600 480 Climbing Chicago Center
10:22AM 42.9192 -90.3672 259° West 405 466 28,100 600 Climbing Chicago Center
10:23AM 42.8906 -90.5483 258° West 409 471 28,900 720 Climbing Chicago Center
10:24AM 42.8664 -90.6969 258° West 406 467 29,700 480 Climbing Chicago Center
10:25AM 42.8431 -90.8442 258° West 403 464 30,000 120 Climbing Chicago Center
10:26AM 42.8203 -90.9906 258° West 400 460 30,000 120 Level Chicago Center
10:27AM 42.7972 -91.1372 258° West 401 461 30,300 480 Climbing Chicago Center
10:28AM 42.7678 -91.3139 257° West 401 461 31,000 600 Climbing Chicago Center
10:29AM 42.7433 -91.4606 257° West 399 459 31,600 480 Climbing Chicago Center
10:30AM 42.7178 -91.6097 257° West 398 458 32,000 180 Climbing Chicago Center
10:31AM 42.6931 -91.7633 258° West 399 459 32,000  Level Chicago Center
10:32AM 42.6683 -91.9094 257° West 399 459 32,000  Level Chicago Center
10:33AM 42.6439 -92.0525 257° West 393 452 32,000  Level Chicago Center
10:34AM 42.6181 -92.1997 257° West 401 461 32,000  Level Chicago Center
10:35AM 42.5869 -92.3783 257° West 408 470 32,000  Level Chicago Center
10:36AM 42.5606 -92.5306 257° West 416 479 32,000  Level Chicago Center
10:37AM 42.5353 -92.6817 257° West 417 480 32,000  Level Chicago Center
10:38AM 42.5081 -92.8358 257° West 423 487 32,000  Level Chicago Center
10:40AM 42.4600 -93.1061 257° West 410 472 32,000  Level Minneapolis Center
10:41AM 42.4342 -93.2594 257° West 418 481 32,000  Level Minneapolis Center
10:42AM 42.4061 -93.4117 256° West 422 486 32,000  Level Minneapolis Center
10:43AM 42.3728 -93.5953 256° West 423 487 32,000  Level Minneapolis Center
10:44AM 42.3419 -93.7461 255° West 418 481 32,000  Level Minneapolis Center
10:45AM 42.3128 -93.9014 256° West 427 491 32,000  Level Minneapolis Center
10:46AM 42.2831 -94.0575 256° West 434 499 32,000  Level Minneapolis Center
10:47AM 42.2536 -94.2117 256° West 430 495 32,000  Level Minneapolis Center
10:48AM 42.2206 -94.3942 256° West 419 482 32,000  Level Minneapolis Center
10:49AM 42.1894 -94.5533 255° West 434 499 32,000  Level Minneapolis Center
10:50AM 42.1733 -94.7119 262° West 431 496 32,000  Level Minneapolis Center
10:51AM 42.1650 -94.8714 266° West 428 493 32,000  Level Minneapolis Center
10:52AM 42.1553 -95.0314 265° West 429 494 32,000  Level Minneapolis Center
10:53AM 42.1439 -95.2236 265° West 430 495 32,000  Level Minneapolis Center
10:54AM 42.1344 -95.3875 266° West 437 503 32,000  Level Minneapolis Center
10:55AM 42.1236 -95.5489 265° West 437 503 32,000  Level Minneapolis Center
10:56AM 42.1136 -95.7117 265° West 437 503 32,000  Level Minneapolis Center
10:57AM 42.1022 -95.8767 265° West 443 510 32,000  Level Minneapolis Center
10:58AM 42.0933 -96.0081 265° West 443 510 32,000  Level Minneapolis Center
10:59AM 42.0786 -96.2375 265° West 443 510 32,000  Level Minneapolis Center
11:01AM 42.0669 -96.4031 265° West 445 512 32,000  Level Minneapolis Center
11:02AM 42.0556 -96.5667 265° West 443 510 32,000  Level Minneapolis Center
11:03AM 42.0431 -96.7319 264° West 445 512 32,000  Level Minneapolis Center
11:04AM 42.0303 -96.8964 264° West 445 512 32,000  Level Minneapolis Center
11:05AM 42.0150 -97.0939 264° West 444 511 32,000  Level Minneapolis Center
11:06AM 42.0031 -97.2572 264° West 442 509 32,000  Level Minneapolis Center
11:07AM 41.9903 -97.4183 264° West 438 504 32,000  Level Minneapolis Center
11:08AM 41.9772 -97.5808 264° West 437 503 32,000  Level Minneapolis Center
11:09AM 41.9631 -97.7422 263° West 436 502 32,000  Level Minneapolis Center
11:10AM 41.9503 -97.9025 264° West 435 501 32,000  Level Minneapolis Center
11:11AM 41.9344 -98.0944 264° West 433 498 32,000  Level Minneapolis Center
11:12AM 41.9214 -98.2475 264° West 431 496 32,000  Level Minneapolis Center
11:13AM 41.9072 -98.4069 263° West 431 496 32,000  Level Minneapolis Center
11:14AM 41.8858 -98.5631 260° West 429 494 32,000  Level Minneapolis Center
11:15AM 41.8561 -98.7519 258° West 432 497 32,000  Level Minneapolis Center
11:16AM 41.8314 -98.9086 258° West 433 498 32,000  Level Minneapolis Center
11:17AM 41.7922 -99.0600 251° West 433 498 32,000  Level Minneapolis Center
11:18AM 41.7361 -99.2753 251° West 437 503 32,000  Level Denver Center
11:20AM 41.6956 -99.4281 250° West 438 504 32,000  Level Denver Center
11:20AM 41.6633 -99.5494 250° West 437 503 32,000  Level Minneapolis Center
11:21AM 41.6219 -99.7017 250° West 437 503 32,000  Level Minneapolis Center
11:22AM 41.5817 -99.8533 250° West 436 502 32,000  Level Minneapolis Center
11:23AM 41.5403 -100.0053 250° West 437 503 32,000  Level Minneapolis Center
11:24AM 41.4983 -100.1569 250° West 437 503 32,000  Level Minneapolis Center
11:25AM 41.4572 -100.3097 250° West 437 503 32,000  Level Minneapolis Center
11:26AM 41.4064 -100.4911 250° West 437 503 32,000  Level Minneapolis Center
11:28AM 41.3508 -100.6850 249° West 439 505 32,000  Level Denver Center
11:29AM 41.3044 -100.8528 250° West 437 503 32,000  Level Denver Center
11:30AM 41.2636 -100.9964 249° West 436 502 32,000  Level Denver Center
11:31AM 41.2142 -101.1642 249° West 440 506 32,000  Level Denver Center
11:32AM 41.1739 -101.3078 250° West 438 504 32,000  Level Denver Center
11:33AM 41.1247 -101.4756 249° West 439 505 32,000  Level Denver Center
11:34AM 41.0842 -101.6194 250° West 437 503 32,000  Level Denver Center
11:35AM 41.0336 -101.7875 248° West 441 507 32,000  Level Denver Center
11:36AM 40.9933 -101.9325 250° West 441 507 32,000  Level Denver Center
11:37AM 40.9439 -102.0992 249° West 438 504 32,000  Level Denver Center
11:38AM 40.9008 -102.2431 248° West 440 506 32,000  Level Denver Center
11:39AM 40.8511 -102.4094 248° West 438 504 32,000  Level Denver Center
11:40AM 40.8089 -102.5519 249° West 436 502 32,000  Level Denver Center
11:41AM 40.7567 -102.7183 248° West 438 504 32,000  Level Denver Center
11:42AM 40.7133 -102.8597 248° West 436 502 32,000 -300 Level Denver Center
11:43AM 40.6628 -103.0264 248° West 434 499 31,400 -1,260 Descending Denver Center
11:44AM 40.6158 -103.1764 248° West 445 512 29,400 -1,980 Descending Denver Center
11:45AM 40.5700 -103.3250 248° West 441 507 27,400 -1,980 Descending Denver Center
11:46AM 40.5233 -103.4742 248° West 444 511 25,400 -1,980 Descending Denver Center
11:47AM 40.4778 -103.6231 248° West 439 505 23,400 -2,100 Descending Denver Center
11:48AM 40.4267 -103.7839 247° West 440 506 21,100 -1,920 Descending Denver Center
11:50AM 40.3831 -103.9264 248° West 388 447 19,500 -1,500 Descending Denver Center
11:51AM 40.3575 -104.0419 254° West 326 375 18,100 -1,260 Descending Denver Center
11:52AM 40.3561 -104.1625 269° West 308 354 16,900 -1,260 Descending Denver Center
11:53AM 40.3539 -104.2636 268° West 279 321 15,600 -1,380 Descending Denver Center
11:54AM 40.3528 -104.3650 269° West 262 302 14,100 -1,200 Descending Denver Center
11:55AM 40.3517 -104.4572 269° West 256 295 13,200 -1,020 Descending Denver Center
11:56AM 40.3492 -104.5606 268° West 263 303 12,000 -600 Descending Denver Center
11:57AM 40.3319 -104.6500 256° West 256 295 12,000 -420 Level Denver Center
11:58AM 40.2614 -104.6919 204° Southwest 275 316 11,200 -780 Descending Denver Center
11:59AM 40.1872 -104.6933 181° South 269 310 10,500 -960 Descending Denver Center
12:00PM 40.1092 -104.6939 180° South 263 303 9,300 -1,080 Descending Denver Center
12:01PM 40.0450 -104.6944 180° South 235 270 8,300 -1,080 Descending Denver Center
12:02PM 39.9889 -104.6953 181° South 207 238 7,100 -1,020 Descending Denver Center
12:03PM 39.9353 -104.6956 180° South 176 203 6,200 -840 Descending Denver Center
12:04PM 39.8933 -104.6958 180° South 154 177 5,400 -780 Descending Denver Center